createdAt,value
2023-04-18T00:01:33.400Z,9.80
2023-04-18T00:04:01.937Z,9.70
2023-04-18T00:06:35.998Z,9.80
2023-04-18T00:09:05.173Z,9.70
2023-04-18T00:11:42.287Z,9.70
2023-04-18T00:14:10.518Z,9.70
2023-04-18T00:16:38.166Z,9.70
2023-04-18T00:19:06.144Z,9.70
2023-04-18T00:21:33.046Z,9.70
2023-04-18T00:24:00.237Z,9.70
2023-04-18T00:26:28.178Z,9.60
2023-04-18T00:28:54.971Z,9.60
2023-04-18T00:31:23.073Z,9.60
2023-04-18T00:33:50.694Z,9.60
2023-04-18T00:36:17.602Z,9.60
2023-04-18T00:38:44.522Z,9.60
2023-04-18T00:41:11.415Z,9.60
2023-04-18T00:43:38.198Z,9.60
2023-04-18T00:46:06.306Z,9.60
2023-04-18T00:48:33.410Z,9.60
2023-04-18T00:51:00.670Z,9.60
2023-04-18T00:53:29.288Z,9.60
2023-04-18T00:55:57.724Z,9.60
2023-04-18T00:58:24.810Z,9.60
2023-04-18T01:00:52.157Z,9.60
2023-04-18T01:03:23.022Z,9.60
2023-04-18T01:05:57.978Z,9.50
2023-04-18T01:08:25.072Z,9.50
2023-04-18T01:10:52.238Z,9.50
2023-04-18T01:13:20.847Z,9.50
2023-04-18T01:15:50.887Z,9.60
2023-04-18T01:18:20.846Z,9.60
2023-04-18T01:20:51.289Z,9.60
2023-04-18T01:23:19.671Z,9.60
2023-04-18T01:25:49.341Z,9.60
2023-04-18T01:28:22.846Z,9.60
2023-04-18T01:30:51.016Z,9.50
2023-04-18T01:33:19.009Z,9.60
2023-04-18T01:35:49.897Z,9.60
2023-04-18T01:38:16.752Z,9.50
2023-04-18T01:40:43.520Z,9.50
2023-04-18T01:43:22.632Z,9.50
2023-04-18T01:46:00.577Z,9.50
2023-04-18T01:48:28.631Z,9.50
2023-04-18T01:51:02.611Z,9.50
2023-04-18T01:53:32.550Z,9.50
2023-04-18T01:56:00.574Z,9.50
2023-04-18T01:58:33.294Z,9.50
2023-04-18T02:01:18.273Z,9.50
2023-04-18T02:03:47.402Z,9.60
2023-04-18T02:06:14.636Z,9.50
2023-04-18T02:08:42.741Z,9.50
2023-04-18T02:11:12.790Z,9.50
2023-04-18T02:13:40.713Z,9.50
2023-04-18T02:16:12.912Z,9.50
2023-04-18T02:18:42.153Z,9.50
2023-04-18T02:21:11.272Z,9.50
2023-04-18T02:23:37.995Z,9.50
2023-04-18T02:26:05.792Z,9.40
2023-04-18T02:28:32.862Z,9.50
2023-04-18T02:31:02.888Z,9.40
2023-04-18T02:33:29.720Z,9.40
2023-04-18T02:36:28.332Z,9.40
2023-04-18T02:39:02.345Z,9.40
2023-04-18T02:41:30.211Z,9.40
2023-04-18T02:43:57.072Z,9.40
2023-04-18T02:46:23.938Z,9.40
2023-04-18T02:48:50.941Z,9.40
2023-04-18T02:51:20.102Z,9.40
2023-04-18T02:53:47.176Z,9.40
2023-04-18T02:56:17.112Z,9.40
2023-04-18T02:58:44.188Z,9.40
2023-04-18T03:01:12.261Z,9.40
2023-04-18T03:03:40.060Z,9.40
2023-04-18T03:06:08.281Z,9.40
2023-04-18T03:08:35.351Z,9.40
2023-04-18T03:11:02.407Z,9.40
2023-04-18T03:13:30.278Z,9.40
2023-04-18T03:15:57.453Z,9.30
2023-04-18T03:18:24.474Z,9.30
2023-04-18T03:20:51.382Z,9.30
2023-04-18T03:23:19.509Z,9.30
2023-04-18T03:25:46.661Z,9.30
2023-04-18T03:28:15.515Z,9.30
2023-04-18T03:30:48.235Z,9.30
2023-04-18T03:33:20.830Z,9.30
2023-04-18T03:35:47.817Z,9.30
2023-04-18T03:38:17.658Z,9.30
2023-04-18T03:40:46.288Z,9.30
2023-04-18T03:43:13.232Z,9.30
2023-04-18T03:45:40.703Z,9.30
2023-04-18T03:48:07.656Z,9.30
2023-04-18T03:50:34.551Z,9.30
2023-04-18T03:53:01.344Z,9.30
2023-04-18T03:55:28.519Z,9.30
2023-04-18T03:57:55.429Z,9.30
2023-04-18T04:00:22.305Z,9.30
2023-04-18T04:02:51.451Z,9.40
2023-04-18T04:05:19.472Z,9.40
2023-04-18T04:07:52.089Z,9.40
2023-04-18T04:10:19.054Z,9.40
2023-04-18T04:12:46.851Z,9.40
2023-04-18T04:15:13.585Z,9.40
2023-04-18T04:17:40.917Z,9.50
2023-04-18T04:20:08.365Z,9.50
2023-04-18T04:22:35.084Z,9.50
2023-04-18T04:25:05.377Z,9.50
2023-04-18T04:27:36.832Z,9.50
2023-04-18T04:30:05.114Z,9.50
2023-04-18T04:32:32.999Z,9.50
2023-04-18T04:35:00.215Z,9.50
2023-04-18T04:37:27.848Z,9.50
2023-04-18T04:39:56.966Z,9.60
2023-04-18T04:42:25.222Z,9.50
2023-04-18T04:44:53.696Z,9.60
2023-04-18T04:47:20.753Z,9.60
2023-04-18T04:49:47.861Z,9.60
2023-04-18T04:52:16.223Z,9.70
2023-04-18T04:54:45.876Z,9.60
2023-04-18T04:57:12.967Z,9.70
2023-04-18T04:59:41.025Z,9.70
2023-04-18T05:02:07.965Z,9.70
2023-04-18T05:04:34.957Z,9.70
2023-04-18T05:07:01.997Z,9.80
2023-04-18T05:09:29.127Z,9.80
2023-04-18T05:11:58.145Z,9.80
2023-04-18T05:14:26.376Z,9.80
2023-04-18T05:16:53.349Z,9.80
2023-04-18T05:19:20.626Z,9.80
2023-04-18T05:21:47.424Z,9.90
2023-04-18T05:24:14.866Z,9.90
2023-04-18T05:26:41.941Z,9.90
2023-04-18T05:29:09.957Z,9.90
2023-04-18T05:31:37.939Z,9.90
2023-04-18T05:34:05.871Z,10.00
2023-04-18T05:36:32.952Z,10.00
2023-04-18T05:38:59.668Z,10.00
2023-04-18T05:41:26.585Z,10.00
2023-04-18T05:44:04.869Z,10.10
2023-04-18T05:46:32.982Z,10.10
2023-04-18T05:49:02.125Z,10.20
2023-04-18T05:51:29.252Z,10.20
2023-04-18T05:53:56.169Z,10.30
2023-04-18T05:56:23.034Z,10.30
2023-04-18T05:58:51.480Z,10.40
2023-04-18T06:01:21.577Z,10.40
2023-04-18T06:03:48.549Z,10.60
2023-04-18T06:06:16.839Z,10.60
2023-04-18T06:08:45.890Z,10.70
2023-04-18T06:11:15.037Z,10.80
2023-04-18T06:13:42.224Z,10.90
2023-04-18T06:16:09.179Z,10.90
2023-04-18T06:18:37.331Z,11.10
2023-04-18T06:21:04.306Z,11.10
2023-04-18T06:23:31.419Z,11.20
2023-04-18T06:25:59.431Z,11.30
2023-04-18T06:28:26.387Z,11.40
2023-04-18T06:30:53.229Z,11.60
2023-04-18T06:33:20.044Z,11.70
2023-04-18T06:35:46.952Z,11.80
2023-04-18T06:38:13.839Z,11.90
2023-04-18T06:40:41.955Z,11.90
2023-04-18T06:43:09.882Z,11.90
2023-04-18T06:45:36.906Z,11.90
2023-04-18T06:48:05.556Z,12.00
2023-04-18T06:50:33.582Z,12.00
2023-04-18T06:53:02.287Z,12.10
2023-04-18T06:55:31.204Z,12.00
2023-04-18T06:58:00.382Z,12.00
2023-04-18T07:00:28.262Z,12.00
2023-04-18T07:02:55.428Z,11.90
2023-04-18T07:05:22.684Z,11.90
2023-04-18T07:07:52.772Z,11.90
2023-04-18T07:10:19.592Z,11.90
2023-04-18T07:12:48.629Z,12.00
2023-04-18T07:15:17.691Z,12.00
2023-04-18T07:17:45.757Z,12.00
2023-04-18T07:20:14.233Z,12.00
2023-04-18T07:22:41.602Z,12.10
2023-04-18T07:25:09.215Z,12.10
2023-04-18T07:27:36.885Z,12.20
2023-04-18T07:30:07.554Z,12.30
2023-04-18T07:32:36.492Z,12.40
2023-04-18T07:35:05.193Z,12.50
2023-04-18T07:37:33.224Z,12.60
2023-04-18T07:39:59.982Z,12.70
2023-04-18T07:42:27.871Z,12.70
2023-04-18T07:44:59.036Z,12.90
2023-04-18T07:47:29.839Z,12.90
2023-04-18T07:49:58.834Z,12.90
2023-04-18T07:52:25.806Z,12.90
2023-04-18T07:54:53.159Z,12.90
2023-04-18T07:57:19.976Z,12.80
2023-04-18T07:59:46.840Z,12.80
2023-04-18T08:02:13.651Z,12.80
2023-04-18T08:04:40.611Z,12.80
2023-04-18T08:07:07.708Z,12.80
2023-04-18T08:09:35.712Z,12.80
2023-04-18T08:12:02.793Z,12.90
2023-04-18T08:14:29.727Z,12.90
2023-04-18T08:16:56.847Z,13.00
2023-04-18T08:19:24.322Z,13.10
2023-04-18T08:21:52.154Z,13.20
2023-04-18T08:24:19.276Z,13.40
2023-04-18T08:26:47.205Z,13.50
2023-04-18T08:29:14.396Z,13.50
2023-04-18T08:31:41.608Z,13.60
2023-04-18T08:34:08.803Z,13.70
2023-04-18T08:36:36.307Z,13.70
2023-04-18T08:39:03.557Z,13.80
2023-04-18T08:41:35.519Z,13.90
2023-04-18T08:44:03.926Z,14.00
2023-04-18T08:46:37.231Z,14.10
2023-04-18T08:49:11.859Z,14.20
2023-04-18T08:51:41.704Z,14.10
2023-04-18T08:54:09.918Z,14.10
2023-04-18T08:56:37.486Z,14.20
2023-04-18T08:59:05.451Z,14.20
2023-04-18T09:01:59.546Z,14.30
2023-04-18T09:04:45.137Z,14.50
2023-04-18T09:07:14.805Z,14.60
2023-04-18T09:09:46.917Z,14.70
2023-04-18T09:12:19.583Z,14.80
2023-04-18T09:14:48.674Z,14.80
2023-04-18T09:17:33.242Z,14.90
2023-04-18T09:20:01.489Z,14.80
2023-04-18T09:22:48.196Z,14.80
2023-04-18T09:25:29.556Z,14.70
2023-04-18T09:28:01.017Z,14.60
2023-04-18T09:30:33.110Z,14.50
2023-04-18T09:33:01.792Z,14.40
2023-04-18T09:35:28.948Z,14.30
2023-04-18T09:37:57.114Z,14.30
2023-04-18T09:40:24.463Z,14.30
2023-04-18T09:42:54.542Z,14.30
2023-04-18T09:45:22.685Z,14.30
2023-04-18T09:47:55.865Z,14.30
2023-04-18T09:50:22.733Z,14.40
2023-04-18T09:52:49.930Z,14.50
2023-04-18T09:55:18.485Z,14.60
2023-04-18T09:57:49.420Z,14.70
2023-04-18T10:00:24.838Z,14.70
2023-04-18T10:02:57.865Z,14.80
2023-04-18T10:05:28.148Z,14.90
2023-04-18T10:07:55.325Z,15.00
2023-04-18T10:10:22.489Z,15.10
2023-04-18T10:12:53.708Z,15.20
2023-04-18T10:15:24.220Z,15.30
2023-04-18T10:20:31.715Z,15.40
2023-04-18T10:22:59.885Z,15.50
2023-04-18T10:25:39.090Z,15.70
2023-04-18T10:28:09.746Z,15.80
2023-04-18T10:30:42.605Z,15.90
2023-04-18T10:33:31.085Z,16.10
2023-04-18T10:36:12.627Z,16.20
2023-04-18T10:38:54.724Z,16.30
2023-04-18T10:41:28.666Z,16.50
2023-04-18T10:44:11.311Z,16.60
2023-04-18T10:46:41.681Z,16.60
2023-04-18T10:49:31.026Z,16.60
2023-04-18T10:52:02.904Z,16.60
2023-04-18T10:54:49.775Z,16.60
2023-04-18T10:57:16.901Z,16.60
2023-04-18T10:59:48.922Z,16.70
2023-04-18T11:02:26.287Z,16.60
2023-04-18T11:04:55.591Z,16.40
2023-04-18T11:07:46.185Z,16.30
2023-04-18T11:10:18.080Z,16.30
2023-04-18T11:12:45.136Z,16.40
2023-04-18T11:15:21.606Z,16.30
2023-04-18T11:18:02.887Z,16.10
2023-04-18T11:20:38.619Z,16.00
2023-04-18T11:23:16.186Z,16.00
2023-04-18T11:25:45.044Z,15.90
2023-04-18T11:28:13.761Z,15.90
2023-04-18T11:30:42.251Z,16.00
2023-04-18T11:33:13.706Z,16.10
2023-04-18T11:35:46.706Z,16.20
2023-04-18T11:38:16.028Z,16.30
2023-04-18T11:40:50.539Z,16.40
2023-04-18T11:43:22.626Z,16.60
2023-04-18T11:45:57.130Z,16.70
2023-04-18T11:48:40.005Z,16.70
2023-04-18T11:51:08.807Z,16.80
2023-04-18T11:53:39.596Z,16.80
2023-04-18T11:56:07.118Z,16.80
2023-04-18T11:58:34.761Z,17.00
2023-04-18T12:01:22.866Z,17.30
2023-04-18T12:04:08.142Z,17.50
2023-04-18T12:06:52.848Z,17.60
2023-04-18T12:09:22.535Z,17.50
2023-04-18T12:12:03.786Z,17.50
2023-04-18T12:14:31.196Z,17.80
2023-04-18T12:16:57.982Z,18.20
2023-04-18T12:19:28.403Z,18.70
2023-04-18T12:22:05.555Z,19.10
2023-04-18T12:24:32.804Z,19.60
2023-04-18T12:27:00.452Z,20.10
2023-04-18T12:29:28.829Z,20.50
2023-04-18T12:31:56.841Z,20.70
2023-04-18T12:34:23.863Z,20.80
2023-04-18T12:36:50.604Z,20.70
2023-04-18T12:39:17.415Z,20.40
2023-04-18T12:41:44.313Z,20.10
2023-04-18T12:44:11.190Z,19.70
2023-04-18T12:46:38.010Z,19.30
2023-04-18T12:49:05.896Z,18.90
2023-04-18T12:51:32.946Z,18.60
2023-04-18T12:54:00.903Z,18.30
2023-04-18T12:56:27.731Z,18.00
2023-04-18T12:58:54.518Z,17.80
2023-04-18T13:01:21.424Z,17.60
2023-04-18T13:03:56.381Z,17.50
2023-04-18T13:06:31.218Z,17.40
2023-04-18T13:08:58.777Z,17.40
2023-04-18T13:11:28.600Z,17.50
2023-04-18T13:13:55.692Z,17.50
2023-04-18T13:16:22.561Z,17.50
2023-04-18T13:18:49.329Z,17.50
2023-04-18T13:21:16.162Z,17.50
2023-04-18T13:23:43.129Z,17.50
2023-04-18T13:26:12.120Z,17.40
2023-04-18T13:28:38.974Z,17.30
2023-04-18T13:31:06.424Z,17.30
2023-04-18T13:33:33.220Z,17.20
2023-04-18T13:35:59.989Z,17.30
2023-04-18T13:38:28.070Z,17.40
2023-04-18T13:41:08.578Z,17.60
2023-04-18T13:43:39.010Z,17.90
2023-04-18T13:46:12.202Z,18.20
2023-04-18T13:48:41.344Z,18.30
2023-04-18T13:51:08.486Z,18.40
2023-04-18T13:53:35.647Z,18.30
2023-04-18T13:56:02.572Z,18.30
2023-04-18T13:58:29.689Z,18.20
2023-04-18T14:00:56.553Z,18.10
2023-04-18T14:03:23.495Z,18.00
2023-04-18T14:05:50.453Z,18.00
2023-04-18T14:08:17.179Z,18.00
2023-04-18T14:10:43.901Z,18.00
2023-04-18T14:13:10.749Z,17.90
2023-04-18T14:18:44.046Z,17.80
2023-04-18T14:21:10.880Z,17.90
2023-04-18T14:23:37.667Z,17.90
2023-04-18T14:26:05.640Z,17.90
2023-04-18T14:28:32.421Z,18.00
2023-04-18T14:31:02.033Z,18.00
2023-04-18T14:33:29.258Z,18.00
2023-04-18T14:35:56.416Z,18.00
2023-04-18T14:38:23.335Z,18.00
2023-04-18T14:40:51.146Z,18.10
2023-04-18T14:43:17.977Z,18.10
2023-04-18T14:45:45.867Z,18.10
2023-04-18T14:48:16.248Z,18.00
2023-04-18T14:50:43.876Z,18.00
2023-04-18T14:53:11.320Z,18.00
2023-04-18T14:55:39.312Z,17.90
2023-04-18T14:58:06.419Z,17.80
2023-04-18T15:00:33.298Z,17.70
2023-04-18T15:03:00.208Z,17.70
2023-04-18T15:05:27.819Z,17.60
2023-04-18T15:07:56.204Z,17.60
2023-04-18T15:10:23.099Z,17.60
2023-04-18T15:12:51.225Z,17.40
2023-04-18T15:15:19.361Z,17.30
2023-04-18T15:17:46.321Z,17.30
2023-04-18T15:20:13.204Z,17.20
2023-04-18T15:22:39.985Z,17.20
2023-04-18T15:25:07.395Z,17.20
2023-04-18T15:27:34.139Z,17.10
2023-04-18T15:30:02.326Z,17.00
2023-04-18T15:32:29.770Z,16.90
2023-04-18T15:34:56.546Z,16.90
2023-04-18T15:37:23.812Z,16.80
2023-04-18T15:39:51.284Z,16.70
2023-04-18T15:42:18.335Z,16.70
2023-04-18T15:44:45.594Z,16.60
2023-04-18T15:47:12.743Z,16.60
2023-04-18T15:49:39.772Z,16.50
2023-04-18T15:52:06.934Z,16.40
2023-04-18T15:54:34.170Z,16.40
2023-04-18T15:57:02.606Z,16.40
2023-04-18T15:59:30.685Z,16.30
2023-04-18T16:01:57.578Z,16.30
2023-04-18T16:04:24.466Z,16.20
2023-04-18T16:06:51.204Z,16.20
2023-04-18T16:09:18.560Z,16.10
2023-04-18T16:11:45.886Z,16.10
2023-04-18T16:14:13.063Z,16.00
2023-04-18T16:16:39.979Z,16.00
2023-04-18T16:19:06.791Z,16.00
2023-04-18T16:21:33.608Z,15.90
2023-04-18T16:24:00.469Z,15.90
2023-04-18T16:26:28.746Z,15.90
2023-04-18T16:28:55.571Z,15.90
2023-04-18T16:31:23.880Z,15.80
2023-04-18T16:33:52.699Z,15.80
2023-04-18T16:36:19.563Z,15.80
2023-04-18T16:38:46.598Z,15.80
2023-04-18T16:41:13.312Z,15.70
2023-04-18T16:43:40.035Z,15.80
2023-04-18T16:46:06.806Z,15.70
2023-04-18T16:48:33.662Z,15.70
2023-04-18T16:51:00.438Z,15.70
2023-04-18T16:53:27.255Z,15.60
2023-04-18T16:55:54.576Z,15.60
2023-04-18T16:58:22.922Z,15.60
2023-04-18T17:00:49.787Z,15.50
2023-04-18T17:03:16.619Z,15.50
2023-04-18T17:05:43.426Z,15.50
2023-04-18T17:08:10.264Z,15.50
2023-04-18T17:10:37.081Z,15.40
2023-04-18T17:13:04.047Z,15.40
2023-04-18T17:15:30.929Z,15.30
2023-04-18T17:18:01.080Z,15.30
2023-04-18T17:20:30.044Z,15.30
2023-04-18T17:22:57.413Z,15.30
2023-04-18T17:25:27.265Z,15.30
2023-04-18T17:27:54.142Z,15.20
2023-04-18T17:30:22.220Z,15.20
2023-04-18T17:32:49.183Z,15.10
2023-04-18T17:35:16.362Z,15.10
2023-04-18T17:37:43.457Z,15.10
2023-04-18T17:40:11.639Z,15.00
2023-04-18T17:42:38.738Z,15.00
2023-04-18T17:45:07.584Z,15.00
2023-04-18T17:47:36.511Z,15.00
2023-04-18T17:50:07.369Z,14.90
2023-04-18T17:52:34.184Z,14.90
2023-04-18T17:55:04.208Z,14.90
2023-04-18T17:57:33.075Z,14.80
2023-04-18T17:59:59.770Z,14.80
2023-04-18T18:02:28.431Z,14.70
2023-04-18T18:04:56.360Z,14.70
2023-04-18T18:07:23.088Z,14.70
2023-04-18T18:09:49.918Z,14.60
2023-04-18T18:12:16.788Z,14.60
2023-04-18T18:14:43.485Z,14.60
2023-04-18T18:17:10.982Z,14.50
2023-04-18T18:19:37.795Z,14.50
2023-04-18T18:22:04.585Z,14.40
2023-04-18T18:24:31.420Z,14.30
2023-04-18T18:26:58.964Z,14.30
2023-04-18T18:29:26.071Z,14.20
2023-04-18T18:31:52.828Z,14.20
2023-04-18T18:34:21.178Z,14.10
2023-04-18T18:36:47.900Z,14.10
2023-04-18T18:39:16.474Z,14.00
2023-04-18T18:41:43.563Z,14.00
2023-04-18T18:44:10.424Z,14.00
2023-04-18T18:46:37.195Z,14.00
2023-04-18T18:49:04.083Z,14.00
2023-04-18T18:51:30.998Z,14.00
2023-04-18T18:53:57.939Z,14.00
2023-04-18T18:56:24.791Z,14.00
2023-04-18T18:58:54.973Z,14.00
2023-04-18T19:01:21.790Z,14.00
2023-04-18T19:03:48.724Z,13.90
2023-04-18T19:06:15.640Z,13.90
2023-04-18T19:08:42.490Z,13.90
2023-04-18T19:11:09.719Z,13.90
2023-04-18T19:13:36.427Z,13.90
2023-04-18T19:16:03.256Z,13.90
2023-04-18T19:18:30.204Z,13.80
2023-04-18T19:20:56.925Z,13.80
2023-04-18T19:23:25.247Z,13.80
2023-04-18T19:25:52.253Z,13.80
2023-04-18T19:28:19.169Z,13.80
2023-04-18T19:30:46.486Z,13.70
2023-04-18T19:33:13.741Z,13.70
2023-04-18T19:35:40.783Z,13.70
2023-04-18T19:38:07.652Z,13.70
2023-04-18T19:40:34.373Z,13.60
2023-04-18T19:43:01.156Z,13.60
2023-04-18T19:45:27.931Z,13.60
2023-04-18T19:47:54.698Z,13.60
2023-04-18T19:50:21.492Z,13.50
2023-04-18T19:52:48.375Z,13.50
2023-04-18T19:55:15.098Z,13.50
2023-04-18T19:57:43.667Z,13.40
2023-04-18T20:00:14.220Z,13.40
2023-04-18T20:02:41.934Z,13.30
2023-04-18T20:05:12.716Z,13.30
2023-04-18T20:07:41.878Z,13.30
2023-04-18T20:10:15.690Z,13.30
2023-04-18T20:12:43.750Z,13.20
2023-04-18T20:15:10.974Z,13.10
2023-04-18T20:17:50.186Z,13.10
2023-04-18T20:20:19.077Z,13.10
2023-04-18T20:22:47.860Z,13.10
2023-04-18T20:25:17.815Z,13.10
2023-04-18T20:27:48.285Z,13.00
2023-04-18T20:30:15.546Z,13.00
2023-04-18T20:32:44.471Z,12.90
2023-04-18T20:35:11.795Z,12.90
2023-04-18T20:37:39.155Z,12.90
2023-04-18T20:40:11.093Z,12.90
2023-04-18T20:42:39.013Z,12.80
2023-04-18T20:45:12.056Z,12.80
2023-04-18T20:47:41.342Z,12.80
2023-04-18T20:50:10.983Z,12.80
2023-04-18T20:52:37.901Z,12.80
2023-04-18T20:55:05.039Z,12.70
2023-04-18T20:57:35.528Z,12.70
2023-04-18T21:00:07.956Z,12.70
2023-04-18T21:02:38.053Z,12.70
2023-04-18T21:05:05.358Z,12.70
2023-04-18T21:07:32.528Z,12.60
2023-04-18T21:10:00.490Z,12.60
2023-04-18T21:12:27.832Z,12.60
2023-04-18T21:14:54.675Z,12.60
2023-04-18T21:17:22.742Z,12.50
2023-04-18T21:19:49.713Z,12.50
2023-04-18T21:22:17.053Z,12.50
2023-04-18T21:24:46.878Z,12.40
2023-04-18T21:27:15.887Z,12.40
2023-04-18T21:29:42.847Z,12.40
2023-04-18T21:32:10.832Z,12.40
2023-04-18T21:34:38.821Z,12.30
2023-04-18T21:37:05.700Z,12.30
2023-04-18T21:39:35.575Z,12.20
2023-04-18T21:42:03.491Z,12.30
2023-04-18T21:44:30.519Z,12.20
2023-04-18T21:46:57.428Z,12.10
2023-04-18T21:49:24.574Z,12.10
2023-04-18T21:51:54.909Z,12.10
2023-04-18T21:54:21.936Z,12.00
2023-04-18T21:56:48.781Z,12.00
2023-04-18T21:59:23.570Z,12.00
2023-04-18T22:01:50.818Z,11.90
2023-04-18T22:04:21.025Z,11.90
2023-04-18T22:06:50.341Z,11.80
2023-04-18T22:09:20.877Z,11.80
2023-04-18T22:11:49.756Z,11.70
2023-04-18T22:14:19.964Z,11.70
2023-04-18T22:16:50.097Z,11.70
2023-04-18T22:19:24.790Z,11.70
2023-04-18T22:21:51.644Z,11.70
2023-04-18T22:24:19.646Z,11.60
2023-04-18T22:26:47.722Z,11.60
2023-04-18T22:29:15.517Z,11.50
2023-04-18T22:31:45.749Z,11.50
2023-04-18T22:34:18.339Z,11.50
2023-04-18T22:36:54.316Z,11.40
2023-04-18T22:39:21.257Z,11.40
2023-04-18T22:41:50.301Z,11.40
2023-04-18T22:44:18.027Z,11.40
2023-04-18T22:46:49.523Z,11.40
2023-04-18T22:49:19.387Z,11.30
2023-04-18T22:51:49.642Z,11.20
2023-04-18T22:54:16.706Z,11.30
2023-04-18T22:56:43.658Z,11.20
2023-04-18T22:59:10.485Z,11.20
2023-04-18T23:01:37.399Z,11.20
2023-04-18T23:04:12.645Z,11.10
2023-04-18T23:06:42.746Z,11.10
2023-04-18T23:09:09.758Z,11.10
2023-04-18T23:11:37.600Z,11.10
2023-04-18T23:14:10.701Z,11.10
2023-04-18T23:16:38.001Z,11.00
2023-04-18T23:19:04.892Z,11.00
2023-04-18T23:21:32.241Z,10.90
2023-04-18T23:24:02.345Z,10.90
2023-04-18T23:26:32.254Z,10.80
2023-04-18T23:28:59.215Z,10.90
2023-04-18T23:31:26.079Z,10.80
2023-04-18T23:33:53.172Z,10.70
2023-04-18T23:36:21.244Z,10.70
2023-04-18T23:38:53.903Z,10.70
2023-04-18T23:41:20.757Z,10.60
2023-04-18T23:43:50.704Z,10.60
2023-04-18T23:46:27.872Z,10.60
2023-04-18T23:48:56.093Z,10.50
2023-04-18T23:51:28.759Z,10.50
2023-04-18T23:54:01.985Z,10.50
2023-04-18T23:56:29.699Z,10.50
2023-04-18T23:58:59.635Z,10.40
